createdAt,value
2023-04-26T00:00:27.759Z,43.15
2023-04-26T00:01:27.778Z,43.12
2023-04-26T00:02:27.970Z,43.09
2023-04-26T00:03:27.939Z,43.09
2023-04-26T00:04:34.338Z,43.09
2023-04-26T00:05:31.718Z,43.09
2023-04-26T00:06:27.741Z,43.12
2023-04-26T00:07:27.687Z,43.12
2023-04-26T00:08:27.703Z,43.11
2023-04-26T00:09:27.695Z,43.12
2023-04-26T00:10:33.892Z,43.14
2023-04-26T00:11:27.678Z,43.14
2023-04-26T00:12:27.789Z,43.13
2023-04-26T00:13:27.671Z,43.14
2023-04-26T00:14:27.648Z,43.13
2023-04-26T00:15:27.619Z,43.12
2023-04-26T00:16:33.847Z,43.13
2023-04-26T00:17:27.592Z,43.12
2023-04-26T00:18:27.588Z,43.12
2023-04-26T00:19:27.566Z,43.12
2023-04-26T00:20:27.534Z,43.14
2023-04-26T00:21:33.803Z,43.11
2023-04-26T00:22:27.558Z,43.10
2023-04-26T00:23:27.517Z,43.08
2023-04-26T00:24:27.480Z,43.05
2023-04-26T00:25:27.460Z,43.03
2023-04-26T00:26:27.492Z,43.01
2023-04-26T00:27:33.745Z,43.01
2023-04-26T00:28:27.440Z,43.02
2023-04-26T00:29:27.464Z,43.02
2023-04-26T00:30:27.393Z,43.04
2023-04-26T00:31:27.439Z,43.04
2023-04-26T00:32:27.467Z,43.05
2023-04-26T00:33:33.674Z,43.05
2023-04-26T00:34:27.421Z,43.05
2023-04-26T00:35:27.374Z,43.04
2023-04-26T00:36:27.386Z,43.03
2023-04-26T00:37:27.372Z,43.01
2023-04-26T00:38:27.301Z,43.00
2023-04-26T00:39:33.590Z,42.98
2023-04-26T00:40:27.277Z,42.99
2023-04-26T00:41:27.273Z,42.99
2023-04-26T00:42:27.278Z,43.01
2023-04-26T00:43:27.266Z,43.03
2023-04-26T00:44:33.523Z,43.04
2023-04-26T00:45:27.250Z,43.03
2023-04-26T00:46:27.328Z,43.00
2023-04-26T00:47:27.238Z,43.01
2023-04-26T00:48:27.184Z,43.00
2023-04-26T00:49:27.212Z,42.98
2023-04-26T00:50:33.420Z,42.97
2023-04-26T00:51:27.175Z,42.98
2023-04-26T00:52:27.162Z,42.98
2023-04-26T00:53:27.186Z,42.97
2023-04-26T00:54:27.123Z,42.99
2023-04-26T00:55:27.235Z,42.99
2023-04-26T00:56:33.371Z,42.99
2023-04-26T00:57:27.112Z,43.00
2023-04-26T00:58:27.239Z,43.02
2023-04-26T00:59:27.064Z,43.00
2023-04-26T01:00:27.033Z,42.96
2023-04-26T01:01:27.038Z,42.94
2023-04-26T01:02:33.413Z,42.93
2023-04-26T01:03:27.386Z,42.92
2023-04-26T01:04:27.112Z,42.90
2023-04-26T01:05:26.996Z,42.88
2023-04-26T01:06:26.977Z,42.87
2023-04-26T01:07:26.970Z,42.88
2023-04-26T01:08:33.217Z,42.91
2023-04-26T01:09:26.935Z,42.90
2023-04-26T01:10:26.959Z,42.92
2023-04-26T01:11:26.939Z,42.93
2023-04-26T01:12:26.974Z,42.95
2023-04-26T01:13:33.114Z,42.95
2023-04-26T01:14:26.935Z,42.93
2023-04-26T01:15:26.901Z,42.95
2023-04-26T01:16:26.974Z,42.93
2023-04-26T01:17:26.871Z,42.94
2023-04-26T01:18:26.816Z,42.95
2023-04-26T01:19:33.059Z,42.94
2023-04-26T01:20:26.838Z,42.93
2023-04-26T01:21:26.830Z,42.93
2023-04-26T01:22:26.777Z,42.92
2023-04-26T01:23:26.760Z,42.90
2023-04-26T01:24:32.998Z,42.90
2023-04-26T01:25:26.743Z,42.88
2023-04-26T01:26:26.742Z,42.89
2023-04-26T01:27:26.726Z,42.89
2023-04-26T01:28:26.732Z,42.86
2023-04-26T01:29:26.701Z,42.86
2023-04-26T01:30:32.919Z,42.87
2023-04-26T01:31:26.738Z,42.85
2023-04-26T01:32:26.685Z,42.87
2023-04-26T01:33:26.674Z,42.85
2023-04-26T01:34:26.623Z,42.89
2023-04-26T01:35:26.593Z,42.89
2023-04-26T01:36:32.832Z,42.89
2023-04-26T01:37:26.616Z,42.90
2023-04-26T01:38:26.571Z,42.87
2023-04-26T01:39:26.594Z,42.85
2023-04-26T01:40:26.527Z,42.86
2023-04-26T01:41:26.520Z,42.86
2023-04-26T01:42:32.769Z,42.85
2023-04-26T01:43:26.509Z,42.84
2023-04-26T01:44:26.510Z,42.85
2023-04-26T01:45:26.502Z,42.85
2023-04-26T01:46:26.470Z,42.87
2023-04-26T01:47:26.501Z,42.88
2023-04-26T01:48:32.705Z,42.86
2023-04-26T01:49:26.459Z,42.86
2023-04-26T01:50:26.408Z,42.87
2023-04-26T01:51:26.385Z,42.86
2023-04-26T01:52:26.561Z,42.83
2023-04-26T01:53:26.408Z,42.83
2023-04-26T01:54:32.624Z,42.80
2023-04-26T01:55:26.340Z,42.82
2023-04-26T01:56:26.329Z,42.85
2023-04-26T01:57:26.353Z,42.85
2023-04-26T01:58:26.374Z,42.86
2023-04-26T01:59:32.519Z,42.86
2023-04-26T02:00:26.272Z,42.85
2023-04-26T02:01:26.255Z,42.82
2023-04-26T02:02:26.327Z,42.82
2023-04-26T02:03:26.301Z,42.80
2023-04-26T02:04:32.518Z,42.81
2023-04-26T02:05:26.321Z,42.81
2023-04-26T02:06:26.197Z,42.82
2023-04-26T02:07:26.182Z,42.81
2023-04-26T02:08:26.170Z,42.83
2023-04-26T02:09:26.200Z,42.82
2023-04-26T02:10:32.414Z,42.80
2023-04-26T02:11:26.194Z,42.80
2023-04-26T02:12:26.141Z,42.80
2023-04-26T02:13:26.118Z,42.81
2023-04-26T02:14:26.145Z,42.80
2023-04-26T02:15:26.225Z,42.80
2023-04-26T02:16:32.367Z,42.79
2023-04-26T02:17:26.089Z,42.81
2023-04-26T02:18:26.067Z,42.83
2023-04-26T02:19:26.060Z,42.84
2023-04-26T02:20:26.009Z,42.84
2023-04-26T02:21:26.040Z,42.86
2023-04-26T02:22:32.251Z,42.85
2023-04-26T02:23:26.013Z,42.86
2023-04-26T02:24:26.043Z,42.86
2023-04-26T02:25:26.045Z,42.85
2023-04-26T02:26:25.943Z,42.85
2023-04-26T02:27:32.182Z,42.86
2023-04-26T02:28:26.020Z,42.82
2023-04-26T02:29:42.295Z,42.80
2023-04-26T02:30:27.413Z,42.79
2023-04-26T02:31:25.930Z,42.81
2023-04-26T02:32:25.929Z,42.81
2023-04-26T02:33:32.107Z,42.83
2023-04-26T02:34:25.852Z,42.85
2023-04-26T02:35:25.882Z,42.86
2023-04-26T02:36:25.815Z,42.89
2023-04-26T02:37:25.850Z,42.89
2023-04-26T02:38:32.071Z,42.89
2023-04-26T02:39:25.806Z,42.88
2023-04-26T02:40:25.794Z,42.87
2023-04-26T02:41:25.765Z,42.85
2023-04-26T02:42:25.802Z,42.83
2023-04-26T02:43:32.002Z,42.80
2023-04-26T02:44:25.707Z,42.77
2023-04-26T02:45:25.729Z,42.77
2023-04-26T02:46:25.734Z,42.75
2023-04-26T02:47:25.676Z,42.75
2023-04-26T02:48:31.944Z,42.76
2023-04-26T02:49:25.663Z,42.76
2023-04-26T02:50:25.720Z,42.76
2023-04-26T02:51:25.636Z,42.77
2023-04-26T02:52:25.634Z,42.80
2023-04-26T02:53:31.905Z,42.81
2023-04-26T02:54:25.604Z,42.81
2023-04-26T02:55:25.638Z,42.81
2023-04-26T02:56:25.593Z,42.80
2023-04-26T02:57:25.653Z,42.81
2023-04-26T02:58:25.579Z,42.83
2023-04-26T02:59:31.808Z,42.83
2023-04-26T03:00:25.573Z,42.85
2023-04-26T03:01:25.611Z,42.84
2023-04-26T03:02:25.646Z,42.84
2023-04-26T03:03:25.739Z,42.83
2023-04-26T03:04:31.758Z,42.82
2023-04-26T03:05:25.449Z,42.82
2023-04-26T03:06:25.463Z,42.82
2023-04-26T03:07:25.480Z,42.81
2023-04-26T03:08:25.407Z,42.81
2023-04-26T03:09:31.689Z,42.82
2023-04-26T03:10:25.399Z,42.79
2023-04-26T03:11:25.387Z,42.80
2023-04-26T03:12:25.396Z,42.78
2023-04-26T03:13:25.378Z,42.78
2023-04-26T03:14:31.575Z,42.76
2023-04-26T03:15:25.334Z,42.75
2023-04-26T03:16:25.388Z,42.74
2023-04-26T03:17:25.420Z,42.76
2023-04-26T03:18:25.299Z,42.78
2023-04-26T03:19:31.500Z,42.82
2023-04-26T03:20:25.269Z,42.82
2023-04-26T03:21:25.280Z,42.82
2023-04-26T03:22:25.263Z,42.82
2023-04-26T03:23:25.244Z,42.79
2023-04-26T03:24:25.233Z,42.79
2023-04-26T03:25:31.523Z,42.77
2023-04-26T03:26:25.195Z,42.76
2023-04-26T03:27:25.245Z,42.77
2023-04-26T03:28:25.189Z,42.78
2023-04-26T03:29:25.250Z,42.76
2023-04-26T03:30:31.400Z,42.75
2023-04-26T03:31:25.139Z,42.73
2023-04-26T03:32:25.292Z,42.73
2023-04-26T03:33:25.144Z,42.71
2023-04-26T03:34:25.139Z,42.71
2023-04-26T03:35:25.089Z,42.73
2023-04-26T03:36:31.395Z,42.73
2023-04-26T03:37:25.072Z,42.74
2023-04-26T03:38:25.037Z,42.75
2023-04-26T03:39:25.038Z,42.76
2023-04-26T03:40:25.018Z,42.75
2023-04-26T03:41:31.324Z,42.75
2023-04-26T03:42:25.014Z,42.74
2023-04-26T03:43:25.008Z,42.74
2023-04-26T03:44:24.983Z,42.74
2023-04-26T03:45:24.968Z,42.75
2023-04-26T03:46:31.303Z,42.72
2023-04-26T03:47:24.955Z,42.70
2023-04-26T03:48:24.959Z,42.68
2023-04-26T03:49:25.012Z,42.67
2023-04-26T03:50:24.951Z,42.67
2023-04-26T03:51:31.144Z,42.69
2023-04-26T03:52:24.881Z,42.67
2023-04-26T03:53:24.878Z,42.69
2023-04-26T03:54:24.837Z,42.69
2023-04-26T03:55:24.858Z,42.68
2023-04-26T03:56:24.836Z,42.67
2023-04-26T03:57:31.083Z,42.68
2023-04-26T03:58:24.815Z,42.68
2023-04-26T03:59:24.785Z,42.67
2023-04-26T04:00:24.827Z,42.67
2023-04-26T04:01:24.862Z,42.64
2023-04-26T04:02:24.931Z,42.61
2023-04-26T04:03:31.166Z,42.59
2023-04-26T04:04:24.826Z,42.57
2023-04-26T04:05:24.713Z,42.57
2023-04-26T04:06:24.746Z,42.57
2023-04-26T04:07:24.724Z,42.58
2023-04-26T04:08:24.683Z,42.58
2023-04-26T04:09:30.913Z,42.59
2023-04-26T04:10:24.682Z,42.57
2023-04-26T04:11:24.675Z,42.54
2023-04-26T04:12:24.621Z,42.52
2023-04-26T04:13:24.599Z,42.54
2023-04-26T04:14:24.647Z,42.51
2023-04-26T04:15:30.864Z,42.49
2023-04-26T04:16:24.618Z,42.50
2023-04-26T04:17:24.635Z,42.48
2023-04-26T04:18:24.571Z,42.44
2023-04-26T04:19:24.548Z,42.42
2023-04-26T04:20:24.552Z,42.39
2023-04-26T04:21:30.822Z,42.39
2023-04-26T04:22:24.530Z,42.37
2023-04-26T04:23:24.543Z,42.36
2023-04-26T04:24:24.565Z,42.35
2023-04-26T04:25:24.457Z,42.34
2023-04-26T04:26:30.753Z,42.34
2023-04-26T04:27:24.449Z,42.34
2023-04-26T04:28:24.415Z,42.35
2023-04-26T04:29:25.416Z,42.34
2023-04-26T04:30:24.417Z,42.33
2023-04-26T04:31:24.408Z,42.33
2023-04-26T04:32:30.746Z,42.34
2023-04-26T04:33:24.388Z,42.34
2023-04-26T04:34:24.411Z,42.32
2023-04-26T04:35:24.356Z,42.29
2023-04-26T04:36:24.316Z,42.27
2023-04-26T04:37:30.612Z,42.27
2023-04-26T04:38:25.386Z,42.25
2023-04-26T04:39:24.309Z,42.26
2023-04-26T04:40:24.291Z,42.26
2023-04-26T04:41:24.232Z,42.25
2023-04-26T04:42:24.227Z,42.22
2023-04-26T04:43:30.536Z,42.21
2023-04-26T04:44:24.201Z,42.21
2023-04-26T04:45:24.231Z,42.22
2023-04-26T04:46:24.213Z,42.21
2023-04-26T04:47:24.284Z,42.20
2023-04-26T04:48:24.139Z,42.21
2023-04-26T04:49:25.086Z,42.21
2023-04-26T04:50:24.169Z,42.18
2023-04-26T04:51:24.124Z,42.17
2023-04-26T04:52:24.145Z,42.16
2023-04-26T04:53:24.130Z,42.16
2023-04-26T04:54:30.361Z,42.17
2023-04-26T04:55:24.141Z,42.16
2023-04-26T04:56:24.059Z,42.13
2023-04-26T04:57:24.059Z,42.11
2023-04-26T04:58:24.053Z,42.08
2023-04-26T04:59:24.014Z,42.09
2023-04-26T05:00:30.283Z,42.07
2023-04-26T05:01:24.026Z,42.06
2023-04-26T05:02:24.084Z,42.05
2023-04-26T05:03:24.140Z,42.04
2023-04-26T05:04:24.189Z,42.03
2023-04-26T05:05:30.227Z,42.02
2023-04-26T05:06:23.930Z,42.01
2023-04-26T05:07:24.626Z,42.00
2023-04-26T05:08:23.924Z,42.00
2023-04-26T05:09:23.886Z,41.99
2023-04-26T05:10:30.223Z,41.99
2023-04-26T05:11:23.893Z,42.01
2023-04-26T05:12:23.872Z,42.02
2023-04-26T05:13:23.854Z,42.01
2023-04-26T05:14:23.864Z,41.98
2023-04-26T05:15:30.132Z,42.00
2023-04-26T05:16:23.866Z,42.01
2023-04-26T05:17:23.881Z,42.02
2023-04-26T05:18:23.844Z,42.02
2023-04-26T05:19:23.781Z,42.01
2023-04-26T05:20:30.036Z,42.00
2023-04-26T05:21:23.817Z,41.99
2023-04-26T05:22:23.754Z,41.96
2023-04-26T05:23:23.750Z,41.92
2023-04-26T05:24:23.730Z,41.90
2023-04-26T05:25:23.710Z,41.88
2023-04-26T05:26:29.933Z,41.86
2023-04-26T05:27:23.710Z,41.86
2023-04-26T05:28:23.699Z,41.89
2023-04-26T05:29:23.682Z,41.91
2023-04-26T05:30:23.638Z,41.93
2023-04-26T05:31:23.675Z,41.95
2023-04-26T05:32:29.949Z,41.97
2023-04-26T05:33:23.631Z,41.98
2023-04-26T05:34:23.597Z,41.98
2023-04-26T05:35:23.592Z,41.96
2023-04-26T05:36:23.588Z,41.95
2023-04-26T05:37:30.040Z,41.95
2023-04-26T05:38:23.585Z,41.92
2023-04-26T05:39:23.538Z,41.88
2023-04-26T05:40:23.644Z,41.85
2023-04-26T05:41:23.492Z,41.82
2023-04-26T05:42:23.506Z,41.83
2023-04-26T05:43:29.855Z,41.84
2023-04-26T05:44:23.520Z,41.87
2023-04-26T05:45:23.583Z,41.89
2023-04-26T05:46:23.505Z,41.92
2023-04-26T05:47:23.505Z,41.90
2023-04-26T05:48:23.421Z,41.90
2023-04-26T05:49:29.739Z,41.92
2023-04-26T05:50:23.430Z,41.91
2023-04-26T05:51:23.376Z,41.92
2023-04-26T05:52:23.346Z,41.92
2023-04-26T05:53:23.391Z,41.92
2023-04-26T05:54:29.564Z,41.88
2023-04-26T05:55:23.357Z,41.85
2023-04-26T05:56:23.334Z,41.85
2023-04-26T05:57:23.301Z,41.84
2023-04-26T05:58:23.306Z,41.83
2023-04-26T05:59:23.316Z,41.80
2023-04-26T06:00:29.574Z,41.78
2023-04-26T06:01:23.244Z,41.81
2023-04-26T06:02:23.315Z,41.82
2023-04-26T06:03:23.391Z,41.83
2023-04-26T06:04:23.319Z,41.82
2023-04-26T06:05:29.725Z,41.80
2023-04-26T06:06:23.456Z,41.79
2023-04-26T06:07:23.163Z,41.77
2023-04-26T06:08:23.145Z,41.75
2023-04-26T06:09:23.176Z,41.70
2023-04-26T06:10:23.188Z,41.65
2023-04-26T06:11:29.375Z,41.59
2023-04-26T06:12:23.140Z,41.57
2023-04-26T06:13:23.105Z,41.53
2023-04-26T06:14:30.506Z,41.54
2023-04-26T06:15:24.570Z,41.50
2023-04-26T06:16:23.086Z,41.46
2023-04-26T06:17:29.306Z,41.46
2023-04-26T06:18:23.027Z,41.46
2023-04-26T06:19:23.028Z,41.48
2023-04-26T06:20:23.034Z,41.46
2023-04-26T06:21:23.005Z,41.42
2023-04-26T06:22:29.235Z,41.36
2023-04-26T06:23:22.988Z,41.34
2023-04-26T06:24:23.025Z,41.37
2023-04-26T06:25:23.034Z,41.41
2023-04-26T06:26:22.909Z,41.37
2023-04-26T06:27:22.973Z,41.31
2023-04-26T06:28:29.159Z,41.14
2023-04-26T06:29:22.951Z,40.95
2023-04-26T06:30:22.958Z,40.92
2023-04-26T06:31:22.978Z,40.93
2023-04-26T06:32:22.945Z,40.94
2023-04-26T06:33:22.853Z,40.98
2023-04-26T06:34:29.102Z,41.05
2023-04-26T06:35:22.872Z,41.03
2023-04-26T06:36:22.846Z,40.99
2023-04-26T06:37:22.853Z,40.95
2023-04-26T06:38:22.868Z,40.92
2023-04-26T06:39:29.102Z,40.88
2023-04-26T06:40:22.774Z,40.80
2023-04-26T06:41:22.797Z,40.77
2023-04-26T06:42:22.731Z,40.76
2023-04-26T06:43:22.718Z,40.60
2023-04-26T06:44:22.688Z,40.54
2023-04-26T06:45:29.021Z,40.61
2023-04-26T06:46:22.990Z,40.57
2023-04-26T06:47:22.838Z,40.49
2023-04-26T06:48:24.405Z,40.35
2023-04-26T06:49:22.644Z,40.18
2023-04-26T06:50:22.759Z,40.19
2023-04-26T06:51:28.922Z,40.31
2023-04-26T06:52:22.636Z,40.44
2023-04-26T06:53:23.287Z,40.15
2023-04-26T06:54:22.604Z,39.85
2023-04-26T06:55:22.614Z,39.98
2023-04-26T06:56:22.600Z,40.22
2023-04-26T06:57:28.797Z,40.43
2023-04-26T06:58:22.564Z,40.37
2023-04-26T06:59:22.597Z,40.20
2023-04-26T07:00:22.516Z,40.31
2023-04-26T07:01:22.515Z,40.31
2023-04-26T07:02:22.759Z,40.26
2023-04-26T07:03:28.895Z,40.16
2023-04-26T07:04:22.593Z,39.99
2023-04-26T07:05:22.539Z,40.00
2023-04-26T07:06:22.612Z,40.17
2023-04-26T07:07:22.437Z,40.06
2023-04-26T07:08:22.392Z,39.91
2023-04-26T07:09:28.637Z,39.78
2023-04-26T07:10:22.402Z,39.72
2023-04-26T07:11:24.613Z,39.64
2023-04-26T07:12:22.331Z,39.56
2023-04-26T07:13:22.341Z,39.46
2023-04-26T07:14:28.534Z,39.47
2023-04-26T07:15:22.289Z,39.47
2023-04-26T07:16:22.365Z,39.62
2023-04-26T07:17:22.340Z,39.57
2023-04-26T07:18:22.308Z,39.56
2023-04-26T07:19:28.521Z,39.52
2023-04-26T07:20:22.254Z,39.43
2023-04-26T07:21:22.244Z,39.36
2023-04-26T07:22:22.305Z,39.34
2023-04-26T07:23:22.222Z,39.27
2023-04-26T07:24:22.269Z,39.18
2023-04-26T07:25:28.416Z,39.18
2023-04-26T07:26:22.215Z,39.22
2023-04-26T07:27:22.193Z,39.22
2023-04-26T07:28:22.131Z,39.28
2023-04-26T07:29:22.137Z,39.23
2023-04-26T07:30:28.365Z,39.21
2023-04-26T07:31:22.179Z,39.20
2023-04-26T07:32:22.199Z,39.14
2023-04-26T07:33:22.298Z,38.93
2023-04-26T07:34:22.084Z,38.73
2023-04-26T07:35:28.393Z,38.90
2023-04-26T07:36:23.836Z,38.94
2023-04-26T07:37:22.058Z,39.10
2023-04-26T07:38:22.033Z,39.19
2023-04-26T07:39:22.036Z,39.30
2023-04-26T07:40:22.031Z,39.48
2023-04-26T07:41:29.243Z,39.06
2023-04-26T07:42:21.982Z,38.85
2023-04-26T07:43:21.963Z,38.58
2023-04-26T07:44:21.984Z,38.46
2023-04-26T07:45:22.114Z,38.31
2023-04-26T07:46:21.944Z,38.46
2023-04-26T07:47:28.256Z,38.13
2023-04-26T07:48:21.889Z,37.85
2023-04-26T07:49:21.881Z,37.95
2023-04-26T07:50:21.946Z,38.34
2023-04-26T07:51:21.871Z,38.22
2023-04-26T07:52:21.845Z,37.83
2023-04-26T07:53:28.123Z,37.66
2023-04-26T07:54:21.812Z,38.02
2023-04-26T07:55:21.899Z,38.33
2023-04-26T07:56:21.825Z,38.45
2023-04-26T07:57:21.770Z,38.31
2023-04-26T07:58:21.790Z,38.20
2023-04-26T07:59:28.052Z,38.19
2023-04-26T08:00:21.748Z,38.33
2023-04-26T08:01:21.756Z,38.35
2023-04-26T08:02:27.253Z,38.22
2023-04-26T08:03:23.444Z,37.87
2023-04-26T08:04:28.122Z,37.46
2023-04-26T08:05:21.921Z,37.56
2023-04-26T08:06:21.821Z,37.76
2023-04-26T08:07:21.667Z,38.07
2023-04-26T08:08:21.649Z,38.47
2023-04-26T08:09:21.655Z,38.92
2023-04-26T08:10:28.006Z,39.37
2023-04-26T08:11:21.687Z,39.70
2023-04-26T08:12:21.595Z,39.91
2023-04-26T08:13:21.658Z,40.07
2023-04-26T08:14:21.645Z,40.14
2023-04-26T08:15:21.559Z,40.00
2023-04-26T08:16:27.852Z,39.78
2023-04-26T08:17:21.738Z,39.68
2023-04-26T08:18:21.547Z,39.32
2023-04-26T08:19:21.553Z,39.26
2023-04-26T08:20:21.467Z,39.15
2023-04-26T08:21:27.752Z,38.97
2023-04-26T08:22:21.493Z,38.84
2023-04-26T08:23:21.496Z,38.80
2023-04-26T08:24:21.450Z,38.67
2023-04-26T08:25:21.401Z,38.77
2023-04-26T08:26:27.737Z,39.10
2023-04-26T08:27:21.397Z,39.47
2023-04-26T08:28:21.469Z,39.81
2023-04-26T08:29:21.405Z,40.03
2023-04-26T08:30:21.368Z,40.15
2023-04-26T08:31:27.651Z,40.21
2023-04-26T08:32:21.385Z,40.27
2023-04-26T08:33:21.475Z,40.31
2023-04-26T08:34:21.311Z,40.36
2023-04-26T08:35:21.357Z,40.42
2023-04-26T08:36:27.532Z,40.50
2023-04-26T08:37:21.320Z,40.64
2023-04-26T08:38:21.288Z,40.78
2023-04-26T08:39:21.258Z,40.93
2023-04-26T08:40:21.234Z,41.06
2023-04-26T08:41:21.259Z,41.07
2023-04-26T08:42:27.469Z,40.61
2023-04-26T08:43:21.180Z,39.94
2023-04-26T08:44:21.185Z,39.39
2023-04-26T08:45:21.228Z,38.85
2023-04-26T08:46:21.316Z,38.37
2023-04-26T08:47:21.114Z,37.75
2023-04-26T08:48:27.548Z,37.26
2023-04-26T08:49:21.125Z,37.46
2023-04-26T08:50:21.134Z,37.34
2023-04-26T08:51:21.161Z,37.44
2023-04-26T08:52:21.122Z,37.21
2023-04-26T08:53:27.326Z,36.72
2023-04-26T08:54:21.051Z,36.78
2023-04-26T08:55:21.037Z,36.79
2023-04-26T08:56:21.067Z,36.80
2023-04-26T08:57:21.037Z,36.99
2023-04-26T08:58:27.309Z,37.08
2023-04-26T08:59:20.987Z,37.44
2023-04-26T09:00:21.045Z,37.67
2023-04-26T09:01:20.970Z,37.87
2023-04-26T09:02:21.057Z,37.94
2023-04-26T09:03:27.408Z,37.98
2023-04-26T09:04:21.179Z,38.06
2023-04-26T09:05:20.915Z,38.15
2023-04-26T09:06:20.891Z,38.22
2023-04-26T09:07:20.873Z,38.45
2023-04-26T09:08:27.262Z,38.74
2023-04-26T09:09:20.951Z,38.92
2023-04-26T09:10:20.954Z,39.01
2023-04-26T09:11:20.855Z,38.90
2023-04-26T09:12:20.862Z,38.71
2023-04-26T09:13:27.092Z,38.32
2023-04-26T09:14:20.775Z,38.10
2023-04-26T09:15:20.759Z,38.11
2023-04-26T09:16:20.812Z,38.26
2023-04-26T09:17:20.800Z,38.52
2023-04-26T09:18:27.033Z,38.69
2023-04-26T09:19:20.767Z,38.78
2023-04-26T09:20:20.724Z,38.86
2023-04-26T09:21:20.823Z,38.98
2023-04-26T09:22:20.671Z,39.11
2023-04-26T09:23:27.002Z,39.20
2023-04-26T09:24:20.705Z,39.16
2023-04-26T09:25:21.090Z,39.04
2023-04-26T09:26:20.691Z,38.72
2023-04-26T09:27:20.663Z,38.38
2023-04-26T09:28:26.847Z,38.23
2023-04-26T09:29:20.608Z,38.26
2023-04-26T09:30:20.578Z,38.42
2023-04-26T09:31:20.644Z,38.68
2023-04-26T09:32:20.563Z,38.95
2023-04-26T09:33:20.613Z,39.18
2023-04-26T09:34:26.785Z,39.23
2023-04-26T09:35:20.517Z,39.06
2023-04-26T09:36:20.508Z,38.89
2023-04-26T09:37:20.520Z,38.56
2023-04-26T09:38:20.582Z,37.77
2023-04-26T09:39:26.762Z,37.86
2023-04-26T09:40:20.449Z,37.92
2023-04-26T09:41:20.472Z,37.49
2023-04-26T09:42:20.479Z,36.99
2023-04-26T09:43:20.446Z,36.58
2023-04-26T09:44:20.413Z,36.18
2023-04-26T09:45:26.653Z,35.73
2023-04-26T09:46:20.517Z,35.12
2023-04-26T09:47:20.355Z,34.46
2023-04-26T09:48:20.482Z,34.24
2023-04-26T09:49:20.343Z,35.06
2023-04-26T09:50:26.616Z,35.82
2023-04-26T09:51:20.319Z,36.37
2023-04-26T09:52:20.309Z,36.75
2023-04-26T09:53:20.331Z,36.95
2023-04-26T09:54:20.303Z,36.94
2023-04-26T09:55:34.688Z,36.30
2023-04-26T09:56:21.752Z,36.25
2023-04-26T09:57:20.402Z,36.44
2023-04-26T09:58:20.240Z,36.76
2023-04-26T09:59:20.217Z,37.11
2023-04-26T10:00:20.219Z,37.42
2023-04-26T10:01:26.706Z,37.74
2023-04-26T10:02:20.215Z,38.03
2023-04-26T10:03:20.270Z,38.24
2023-04-26T10:04:20.280Z,38.26
2023-04-26T10:05:20.164Z,38.11
2023-04-26T10:06:26.452Z,37.85
2023-04-26T10:07:20.128Z,37.55
2023-04-26T10:08:20.083Z,37.29
2023-04-26T10:09:20.087Z,37.08
2023-04-26T10:10:20.208Z,35.95
2023-04-26T10:11:20.143Z,35.04
2023-04-26T10:12:26.282Z,35.05
2023-04-26T10:13:20.037Z,35.25
2023-04-26T10:14:20.057Z,35.60
2023-04-26T10:15:20.038Z,36.11
2023-04-26T10:16:20.068Z,36.73
2023-04-26T10:17:26.332Z,37.40
2023-04-26T10:18:20.041Z,38.08
2023-04-26T10:19:20.009Z,38.72
2023-04-26T10:20:19.958Z,39.27
2023-04-26T10:21:19.981Z,39.74
2023-04-26T10:22:26.219Z,40.10
2023-04-26T10:23:19.942Z,40.39
2023-04-26T10:24:19.914Z,40.56
2023-04-26T10:25:19.931Z,40.68
2023-04-26T10:26:19.872Z,40.77
2023-04-26T10:27:19.912Z,40.91
2023-04-26T10:28:26.128Z,41.04
2023-04-26T10:29:19.831Z,41.14
2023-04-26T10:30:19.852Z,41.24
2023-04-26T10:31:19.863Z,41.32
2023-04-26T10:32:19.828Z,41.39
2023-04-26T10:33:19.814Z,41.42
2023-04-26T10:34:26.060Z,41.36
2023-04-26T10:35:19.776Z,41.22
2023-04-26T10:36:19.781Z,41.04
2023-04-26T10:37:19.766Z,40.74
2023-04-26T10:38:19.753Z,40.46
2023-04-26T10:39:19.800Z,40.15
2023-04-26T10:40:25.981Z,39.82
2023-04-26T10:41:19.710Z,39.46
2023-04-26T10:42:20.624Z,39.07
2023-04-26T10:43:19.688Z,38.65
2023-04-26T10:44:19.697Z,38.20
2023-04-26T10:45:19.660Z,37.41
2023-04-26T10:46:25.953Z,37.27
2023-04-26T10:47:19.693Z,37.32
2023-04-26T10:48:19.673Z,37.47
2023-04-26T10:49:19.664Z,37.61
2023-04-26T10:50:19.545Z,37.78
2023-04-26T10:51:25.836Z,37.94
2023-04-26T10:52:19.571Z,38.02
2023-04-26T10:53:19.544Z,38.10
2023-04-26T10:54:19.695Z,38.27
2023-04-26T10:55:19.524Z,38.41
2023-04-26T10:56:19.504Z,38.60
2023-04-26T10:57:25.733Z,38.84
2023-04-26T10:58:19.471Z,39.15
2023-04-26T10:59:36.265Z,39.44
2023-04-26T11:00:21.052Z,39.68
2023-04-26T11:01:19.459Z,39.84
2023-04-26T11:02:19.449Z,39.91
2023-04-26T11:03:25.750Z,39.94
2023-04-26T11:04:19.469Z,39.95
2023-04-26T11:05:19.454Z,39.99
2023-04-26T11:06:19.437Z,39.98
2023-04-26T11:07:19.384Z,39.95
2023-04-26T11:08:25.607Z,39.93
2023-04-26T11:09:19.339Z,39.86
2023-04-26T11:10:19.316Z,39.73
2023-04-26T11:11:19.310Z,39.59
2023-04-26T11:12:19.336Z,39.41
2023-04-26T11:13:25.552Z,39.25
2023-04-26T11:14:19.269Z,39.03
2023-04-26T11:15:19.317Z,38.76
2023-04-26T11:16:19.366Z,38.45
2023-04-26T11:17:19.266Z,38.11
2023-04-26T11:18:25.501Z,37.72
2023-04-26T11:19:19.436Z,37.25
2023-04-26T11:20:19.237Z,36.71
2023-04-26T11:21:19.176Z,36.10
2023-04-26T11:23:04.171Z,34.82
2023-04-26T11:24:10.005Z,34.89
2023-04-26T11:25:03.710Z,34.79
2023-04-26T11:26:02.695Z,34.89
2023-04-26T11:27:03.668Z,35.09
2023-04-26T11:28:03.675Z,35.32
2023-04-26T11:29:09.889Z,35.57
2023-04-26T11:30:02.688Z,35.90
2023-04-26T11:31:02.673Z,36.40
2023-04-26T11:32:03.586Z,36.92
2023-04-26T11:33:02.681Z,37.38
2023-04-26T11:34:08.880Z,37.83
2023-04-26T11:35:03.519Z,38.26
2023-04-26T11:36:02.635Z,38.65
2023-04-26T11:37:02.544Z,39.00
2023-04-26T11:38:02.554Z,39.32
2023-04-26T11:39:02.595Z,39.64
2023-04-26T11:40:08.839Z,39.94
2023-04-26T11:41:03.518Z,40.21
2023-04-26T11:42:02.574Z,40.42
2023-04-26T11:43:02.505Z,40.59
2023-04-26T11:44:02.513Z,40.67
2023-04-26T11:45:02.498Z,40.63
2023-04-26T11:46:08.916Z,40.50
2023-04-26T11:47:02.508Z,40.31
2023-04-26T11:48:02.501Z,39.99
2023-04-26T11:49:02.420Z,39.71
2023-04-26T11:50:02.463Z,39.49
2023-04-26T11:51:08.683Z,39.21
2023-04-26T11:52:02.370Z,38.86
2023-04-26T11:53:02.415Z,38.47
2023-04-26T11:54:02.355Z,37.76
2023-04-26T11:55:03.318Z,37.35
2023-04-26T11:56:03.331Z,37.05
2023-04-26T11:57:08.589Z,36.85
2023-04-26T11:58:03.245Z,36.72
2023-04-26T11:59:02.383Z,36.42
2023-04-26T12:00:02.280Z,35.89
2023-04-26T12:01:02.271Z,35.05
2023-04-26T12:02:09.526Z,35.15
2023-04-26T12:03:03.457Z,33.55
2023-04-26T12:04:02.499Z,33.28
2023-04-26T12:05:03.294Z,32.86
2023-04-26T12:06:03.159Z,31.83
2023-04-26T12:07:08.577Z,31.41
2023-04-26T12:08:03.145Z,30.69
2023-04-26T12:09:02.260Z,29.98
2023-04-26T12:10:02.143Z,29.41
2023-04-26T12:11:03.107Z,30.30
2023-04-26T12:12:09.428Z,31.43
2023-04-26T12:13:03.068Z,32.44
2023-04-26T12:14:03.108Z,33.43
2023-04-26T12:15:02.119Z,34.35
2023-04-26T12:16:05.277Z,35.20
2023-04-26T12:17:03.716Z,36.04
2023-04-26T12:18:09.343Z,36.80
2023-04-26T12:19:03.015Z,37.45
2023-04-26T12:20:02.978Z,38.10
2023-04-26T12:21:02.988Z,38.74
2023-04-26T12:22:02.063Z,39.32
2023-04-26T12:23:12.007Z,39.89
2023-04-26T12:24:02.954Z,40.34
2023-04-26T12:25:01.982Z,40.78
2023-04-26T12:26:02.904Z,41.12
2023-04-26T12:27:02.603Z,41.40
2023-04-26T12:28:01.939Z,41.54
2023-04-26T12:29:09.132Z,41.61
2023-04-26T12:30:02.007Z,41.63
2023-04-26T12:31:01.899Z,41.53
2023-04-26T12:32:03.178Z,41.35
2023-04-26T12:33:15.631Z,41.13
2023-04-26T12:34:09.900Z,40.95
2023-04-26T12:35:01.999Z,40.72
2023-04-26T12:36:01.818Z,40.46
2023-04-26T12:37:02.443Z,40.16
2023-04-26T12:38:01.830Z,39.78
2023-04-26T12:39:02.742Z,39.08
2023-04-26T12:40:08.049Z,38.44
2023-04-26T12:41:02.721Z,37.46
2023-04-26T12:42:02.681Z,36.74
2023-04-26T12:43:01.750Z,35.91
2023-04-26T12:44:01.768Z,35.58
2023-04-26T12:45:01.717Z,33.85
2023-04-26T12:46:08.060Z,33.26
2023-04-26T12:47:01.681Z,32.37
2023-04-26T12:48:02.657Z,29.40
2023-04-26T12:49:01.673Z,28.48
2023-04-26T12:50:02.624Z,27.22
2023-04-26T12:51:07.909Z,24.75
2023-04-26T12:52:02.551Z,24.49
2023-04-26T12:53:01.674Z,22.92